sensor_id;sensor_type;location;lat;lon;timestamp;pressure;altitude;pressure_sealevel;temperature;humidity
41234;BME280;26968;42.686;23.352;2022-08-25T00:00:47;94976.28;;;20.74;71.24
41234;BME280;26968;42.686;23.352;2022-08-25T00:03:14;95056.84;;;21.32;71.74
41234;BME280;26968;42.686;23.352;2022-08-25T00:05:40;95063.38;;;21.31;71.69
41234;BME280;26968;42.686;23.352;2022-08-25T00:08:06;95112.16;;;21.53;72.37
41234;BME280;26968;42.686;23.352;2022-08-25T00:10:33;95030.66;;;21.04;72.04
41234;BME280;26968;42.686;23.352;2022-08-25T00:13:02;95093.09;;;21.46;72.14
41234;BME280;26968;42.686;23.352;2022-08-25T00:15:28;95109.75;;;21.64;71.91
41234;BME280;26968;42.686;23.352;2022-08-25T00:17:55;95084.78;;;21.39;71.43
41234;BME280;26968;42.686;23.352;2022-08-25T00:20:22;94967.22;;;20.67;72.17
41234;BME280;26968;42.686;23.352;2022-08-25T00:22:47;95044.09;;;21.16;71.92
41234;BME280;26968;42.686;23.352;2022-08-25T00:25:13;95037.44;;;21.14;71.75
41234;BME280;26968;42.686;23.352;2022-08-25T00:27:39;95043.16;;;20.97;72.64
41234;BME280;26968;42.686;23.352;2022-08-25T00:30:05;95047.44;;;21.13;71.97
41234;BME280;26968;42.686;23.352;2022-08-25T00:32:31;95096.84;;;21.30;72.59
41234;BME280;26968;42.686;23.352;2022-08-25T00:34:56;95068.03;;;21.18;72.75
41234;BME280;26968;42.686;23.352;2022-08-25T00:37:22;95033.34;;;21.04;72.38
41234;BME280;26968;42.686;23.352;2022-08-25T00:39:48;94991.53;;;20.83;72.16
41234;BME280;26968;42.686;23.352;2022-08-25T00:42:13;95075.25;;;21.42;72.03
41234;BME280;26968;42.686;23.352;2022-08-25T00:44:39;95099.56;;;21.58;72.18
41234;BME280;26968;42.686;23.352;2022-08-25T00:47:06;95051.72;;;21.27;72.07
41234;BME280;26968;42.686;23.352;2022-08-25T00:49:57;95111.31;;;21.37;73.00
41234;BME280;26968;42.686;23.352;2022-08-25T00:52:44;95095.88;;;21.22;73.07
41234;BME280;26968;42.686;23.352;2022-08-25T00:55:17;95094.88;;;21.27;73.15
41234;BME280;26968;42.686;23.352;2022-08-25T00:57:50;95051.84;;;21.06;72.79
41234;BME280;26968;42.686;23.352;2022-08-25T01:00:27;95046.56;;;21.09;72.45
41234;BME280;26968;42.686;23.352;2022-08-25T01:02:53;95075.28;;;21.30;72.68
41234;BME280;26968;42.686;23.352;2022-08-25T01:05:21;94952.19;;;20.54;72.45
41234;BME280;26968;42.686;23.352;2022-08-25T01:07:47;94993.19;;;20.59;73.21
41234;BME280;26968;42.686;23.352;2022-08-25T01:10:16;94933.50;;;20.33;73.10
41234;BME280;26968;42.686;23.352;2022-08-25T01:12:42;94977.28;;;20.70;72.96
41234;BME280;26968;42.686;23.352;2022-08-25T01:15:11;94944.13;;;20.54;72.48
41234;BME280;26968;42.686;23.352;2022-08-25T01:17:49;95021.13;;;20.95;73.47
41234;BME280;26968;42.686;23.352;2022-08-25T01:20:17;95031.16;;;21.22;72.74
41234;BME280;26968;42.686;23.352;2022-08-25T01:22:44;94983.34;;;20.79;72.62
41234;BME280;26968;42.686;23.352;2022-08-25T01:25:23;95040.72;;;21.07;72.83
41234;BME280;26968;42.686;23.352;2022-08-25T01:27:52;94981.56;;;20.71;72.94
41234;BME280;26968;42.686;23.352;2022-08-25T01:30:18;95080.53;;;21.38;72.88
41234;BME280;26968;42.686;23.352;2022-08-25T01:32:44;95021.66;;;21.00;72.68
41234;BME280;26968;42.686;23.352;2022-08-25T01:35:13;94870.75;;;20.04;72.55
41234;BME280;26968;42.686;23.352;2022-08-25T01:37:39;94983.66;;;20.90;72.76
41234;BME280;26968;42.686;23.352;2022-08-25T01:40:05;95028.72;;;21.17;72.74
41234;BME280;26968;42.686;23.352;2022-08-25T01:45:32;95076.06;;;21.58;72.54
41234;BME280;26968;42.686;23.352;2022-08-25T01:47:57;94914.59;;;20.57;72.14
41234;BME280;26968;42.686;23.352;2022-08-25T01:50:23;94969.06;;;20.78;72.60
41234;BME280;26968;42.686;23.352;2022-08-25T01:53:27;95081.34;;;21.54;72.46
41234;BME280;26968;42.686;23.352;2022-08-25T01:55:53;95084.16;;;21.58;72.80
41234;BME280;26968;42.686;23.352;2022-08-25T01:58:32;95080.50;;;21.50;72.75
41234;BME280;26968;42.686;23.352;2022-08-25T02:01:01;94942.06;;;20.63;72.80
41234;BME280;26968;42.686;23.352;2022-08-25T02:03:27;95017.44;;;21.15;72.52
41234;BME280;26968;42.686;23.352;2022-08-25T02:05:54;95006.84;;;20.66;73.73
41234;BME280;26968;42.686;23.352;2022-08-25T02:08:20;95069.28;;;21.21;74.03
41234;BME280;26968;42.686;23.352;2022-08-25T02:10:48;95049.28;;;21.09;73.07
41234;BME280;26968;42.686;23.352;2022-08-25T02:13:14;95071.91;;;21.33;72.18
41234;BME280;26968;42.686;23.352;2022-08-25T02:15:46;95072.75;;;21.09;73.02
41234;BME280;26968;42.686;23.352;2022-08-25T02:18:13;95018.53;;;20.58;74.00
41234;BME280;26968;42.686;23.352;2022-08-25T02:20:38;94986.88;;;20.55;73.45
41234;BME280;26968;42.686;23.352;2022-08-25T02:23:04;94993.13;;;20.71;72.76
41234;BME280;26968;42.686;23.352;2022-08-25T02:25:30;95017.91;;;20.77;72.86
41234;BME280;26968;42.686;23.352;2022-08-25T02:27:56;94960.63;;;20.52;73.03
41234;BME280;26968;42.686;23.352;2022-08-25T02:30:23;94969.75;;;20.75;72.42
41234;BME280;26968;42.686;23.352;2022-08-25T02:32:48;94951.38;;;20.65;72.49
41234;BME280;26968;42.686;23.352;2022-08-25T02:35:14;95058.22;;;21.26;72.91
41234;BME280;26968;42.686;23.352;2022-08-25T02:37:39;95059.09;;;21.30;72.46
41234;BME280;26968;42.686;23.352;2022-08-25T02:40:06;95043.56;;;20.99;72.94
41234;BME280;26968;42.686;23.352;2022-08-25T02:42:32;95010.22;;;20.91;72.83
41234;BME280;26968;42.686;23.352;2022-08-25T02:44:57;95039.00;;;21.15;72.79
41234;BME280;26968;42.686;23.352;2022-08-25T02:47:23;94982.75;;;20.86;72.08
41234;BME280;26968;42.686;23.352;2022-08-25T02:49:49;94986.38;;;20.77;72.05
41234;BME280;26968;42.686;23.352;2022-08-25T02:52:14;95037.88;;;20.88;72.30
41234;BME280;26968;42.686;23.352;2022-08-25T02:54:40;94969.06;;;20.38;72.71
41234;BME280;26968;42.686;23.352;2022-08-25T02:57:06;94935.34;;;20.04;72.74
41234;BME280;26968;42.686;23.352;2022-08-25T02:59:32;95047.56;;;20.77;72.56
41234;BME280;26968;42.686;23.352;2022-08-25T03:01:57;94948.81;;;19.92;73.14
41234;BME280;26968;42.686;23.352;2022-08-25T03:04:23;95048.06;;;20.67;73.04
41234;BME280;26968;42.686;23.352;2022-08-25T03:06:48;94963.84;;;20.06;72.46
41234;BME280;26968;42.686;23.352;2022-08-25T03:09:14;95081.09;;;20.92;72.59
41234;BME280;26968;42.686;23.352;2022-08-25T03:11:40;95011.38;;;20.26;73.27
41234;BME280;26968;42.686;23.352;2022-08-25T03:14:07;94973.03;;;20.04;73.40
41234;BME280;26968;42.686;23.352;2022-08-25T03:16:33;95045.47;;;20.58;73.54
41234;BME280;26968;42.686;23.352;2022-08-25T03:19:00;94936.81;;;19.90;73.37
41234;BME280;26968;42.686;23.352;2022-08-25T03:21:26;94917.09;;;19.61;73.95
41234;BME280;26968;42.686;23.352;2022-08-25T03:23:54;95001.06;;;20.16;73.46
41234;BME280;26968;42.686;23.352;2022-08-25T03:26:19;95024.63;;;20.19;74.20
41234;BME280;26968;42.686;23.352;2022-08-25T03:29:03;95025.28;;;20.16;74.08
41234;BME280;26968;42.686;23.352;2022-08-25T03:31:33;95046.97;;;20.44;73.46
41234;BME280;26968;42.686;23.352;2022-08-25T03:33:59;94886.06;;;19.52;73.18
41234;BME280;26968;42.686;23.352;2022-08-25T03:36:25;95035.16;;;20.48;73.11
41234;BME280;26968;42.686;23.352;2022-08-25T03:38:51;94967.97;;;20.15;72.36
41234;BME280;26968;42.686;23.352;2022-08-25T03:41:21;95086.53;;;20.67;73.18
41234;BME280;26968;42.686;23.352;2022-08-25T03:43:48;95022.50;;;20.36;72.99
41234;BME280;26968;42.686;23.352;2022-08-25T03:46:25;94988.03;;;20.42;71.74
41234;BME280;26968;42.686;23.352;2022-08-25T03:48:51;95074.19;;;20.78;72.45
41234;BME280;26968;42.686;23.352;2022-08-25T03:51:26;95026.06;;;20.53;73.06
41234;BME280;26968;42.686;23.352;2022-08-25T03:53:52;95026.28;;;20.48;72.78
41234;BME280;26968;42.686;23.352;2022-08-25T03:56:18;95065.75;;;20.80;72.85
41234;BME280;26968;42.686;23.352;2022-08-25T03:58:44;94989.94;;;20.41;72.20
41234;BME280;26968;42.686;23.352;2022-08-25T04:01:09;95040.03;;;20.83;71.76
41234;BME280;26968;42.686;23.352;2022-08-25T04:03:35;95033.75;;;20.78;71.74
41234;BME280;26968;42.686;23.352;2022-08-25T04:06:02;95043.41;;;20.79;71.83
41234;BME280;26968;42.686;23.352;2022-08-25T04:08:28;95032.88;;;20.62;72.00
41234;BME280;26968;42.686;23.352;2022-08-25T04:10:53;94854.78;;;19.47;71.74
41234;BME280;26968;42.686;23.352;2022-08-25T04:13:19;95017.97;;;20.53;72.27
41234;BME280;26968;42.686;23.352;2022-08-25T04:15:45;95008.69;;;20.38;72.29
41234;BME280;26968;42.686;23.352;2022-08-25T04:18:11;95039.72;;;20.60;72.41
41234;BME280;26968;42.686;23.352;2022-08-25T04:20:38;94975.03;;;20.20;72.15
41234;BME280;26968;42.686;23.352;2022-08-25T04:23:04;95019.81;;;20.36;72.56
41234;BME280;26968;42.686;23.352;2022-08-25T04:25:30;95013.28;;;20.37;72.41
41234;BME280;26968;42.686;23.352;2022-08-25T04:27:55;94954.97;;;19.93;72.85
41234;BME280;26968;42.686;23.352;2022-08-25T04:30:21;94952.53;;;19.88;72.94
41234;BME280;26968;42.686;23.352;2022-08-25T04:32:47;94941.75;;;19.88;72.81
41234;BME280;26968;42.686;23.352;2022-08-25T04:35:13;94925.28;;;19.65;73.05
41234;BME280;26968;42.686;23.352;2022-08-25T04:37:39;95002.63;;;20.29;72.61
41234;BME280;26968;42.686;23.352;2022-08-25T04:40:06;94918.31;;;19.88;71.93
41234;BME280;26968;42.686;23.352;2022-08-25T04:42:31;95032.25;;;20.41;71.74
41234;BME280;26968;42.686;23.352;2022-08-25T04:44:58;95082.28;;;20.54;72.58
41234;BME280;26968;42.686;23.352;2022-08-25T04:47:26;95085.31;;;20.65;72.36
41234;BME280;26968;42.686;23.352;2022-08-25T04:49:51;94996.00;;;20.14;72.05
41234;BME280;26968;42.686;23.352;2022-08-25T04:52:17;95008.22;;;20.24;72.09
41234;BME280;26968;42.686;23.352;2022-08-25T04:54:42;95041.34;;;20.49;71.91
41234;BME280;26968;42.686;23.352;2022-08-25T04:57:08;95092.47;;;20.85;71.68
41234;BME280;26968;42.686;23.352;2022-08-25T04:59:34;94991.66;;;20.34;71.21
41234;BME280;26968;42.686;23.352;2022-08-25T05:02:00;95088.13;;;21.08;70.90
41234;BME280;26968;42.686;23.352;2022-08-25T05:04:27;95088.06;;;21.05;70.65
41234;BME280;26968;42.686;23.352;2022-08-25T05:06:53;95000.94;;;20.49;70.66
41234;BME280;26968;42.686;23.352;2022-08-25T05:09:19;95023.22;;;20.73;70.29
41234;BME280;26968;42.686;23.352;2022-08-25T05:11:44;95049.25;;;20.82;70.47
41234;BME280;26968;42.686;23.352;2022-08-25T05:14:10;95024.81;;;20.62;70.51
41234;BME280;26968;42.686;23.352;2022-08-25T05:16:38;94990.94;;;20.49;70.39
41234;BME280;26968;42.686;23.352;2022-08-25T05:19:03;95008.31;;;20.64;70.25
41234;BME280;26968;42.686;23.352;2022-08-25T05:21:29;95034.75;;;20.86;70.64
41234;BME280;26968;42.686;23.352;2022-08-25T05:23:58;95066.13;;;21.18;69.91
41234;BME280;26968;42.686;23.352;2022-08-25T05:26:27;94955.69;;;20.30;70.16
41234;BME280;26968;42.686;23.352;2022-08-25T05:28:55;95055.06;;;20.96;70.53
41234;BME280;26968;42.686;23.352;2022-08-25T05:31:23;94919.56;;;19.91;71.14
41234;BME280;26968;42.686;23.352;2022-08-25T05:33:49;95069.72;;;20.98;70.98
41234;BME280;26968;42.686;23.352;2022-08-25T05:36:16;94914.34;;;20.10;70.47
41234;BME280;26968;42.686;23.352;2022-08-25T05:38:42;95064.63;;;21.21;70.24
41234;BME280;26968;42.686;23.352;2022-08-25T05:41:15;94955.59;;;20.51;69.72
41234;BME280;26968;42.686;23.352;2022-08-25T05:43:42;95035.41;;;20.83;70.28
41234;BME280;26968;42.686;23.352;2022-08-25T05:46:08;94942.94;;;20.27;70.86
41234;BME280;26968;42.686;23.352;2022-08-25T05:48:35;95028.81;;;20.80;70.26
41234;BME280;26968;42.686;23.352;2022-08-25T05:51:02;94985.97;;;20.63;70.61
41234;BME280;26968;42.686;23.352;2022-08-25T05:53:29;95066.13;;;21.06;70.53
41234;BME280;26968;42.686;23.352;2022-08-25T05:55:56;95062.16;;;21.28;70.19
41234;BME280;26968;42.686;23.352;2022-08-25T05:58:23;94888.19;;;20.23;69.64
41234;BME280;26968;42.686;23.352;2022-08-25T06:00:49;95021.63;;;21.12;69.06
41234;BME280;26968;42.686;23.352;2022-08-25T06:03:16;95065.50;;;21.53;69.68
41234;BME280;26968;42.686;23.352;2022-08-25T06:05:41;95040.13;;;21.14;69.88
41234;BME280;26968;42.686;23.352;2022-08-25T06:08:07;95030.72;;;21.08;69.14
41234;BME280;26968;42.686;23.352;2022-08-25T06:10:33;95070.34;;;21.32;69.67
41234;BME280;26968;42.686;23.352;2022-08-25T06:12:59;95066.38;;;21.41;69.63
41234;BME280;26968;42.686;23.352;2022-08-25T06:15:25;95020.63;;;21.17;69.75
41234;BME280;26968;42.686;23.352;2022-08-25T06:17:51;95038.72;;;21.16;70.11
41234;BME280;26968;42.686;23.352;2022-08-25T06:20:20;94994.25;;;20.98;70.08
41234;BME280;26968;42.686;23.352;2022-08-25T06:22:47;95052.41;;;21.11;70.45
41234;BME280;26968;42.686;23.352;2022-08-25T06:25:15;94959.34;;;20.62;70.30
41234;BME280;26968;42.686;23.352;2022-08-25T06:27:41;95052.34;;;21.51;70.23
41234;BME280;26968;42.686;23.352;2022-08-25T06:30:09;95067.19;;;21.58;70.28
41234;BME280;26968;42.686;23.352;2022-08-25T06:32:38;94981.41;;;21.07;70.18
41234;BME280;26968;42.686;23.352;2022-08-25T06:35:05;95029.09;;;21.31;70.36
41234;BME280;26968;42.686;23.352;2022-08-25T06:37:32;94976.13;;;20.83;70.58
41234;BME280;26968;42.686;23.352;2022-08-25T06:39:58;95010.72;;;21.09;70.73
41234;BME280;26968;42.686;23.352;2022-08-25T06:42:23;94950.53;;;20.77;70.69
41234;BME280;26968;42.686;23.352;2022-08-25T06:44:49;95023.06;;;21.22;70.20
41234;BME280;26968;42.686;23.352;2022-08-25T06:47:15;94833.91;;;20.21;70.31
41234;BME280;26968;42.686;23.352;2022-08-25T06:49:41;95062.34;;;21.79;69.66
41234;BME280;26968;42.686;23.352;2022-08-25T06:52:07;95026.88;;;21.65;69.85
41234;BME280;26968;42.686;23.352;2022-08-25T06:54:33;94769.25;;;20.05;68.96
41234;BME280;26968;42.686;23.352;2022-08-25T06:56:59;94934.06;;;21.22;68.55
41234;BME280;26968;42.686;23.352;2022-08-25T06:59:25;94959.66;;;21.60;68.28
41234;BME280;26968;42.686;23.352;2022-08-25T07:01:51;94959.59;;;21.72;68.08
41234;BME280;26968;42.686;23.352;2022-08-25T07:04:16;95065.47;;;22.28;67.37
41234;BME280;26968;42.686;23.352;2022-08-25T07:06:41;94941.31;;;21.65;67.23
41234;BME280;26968;42.686;23.352;2022-08-25T07:09:09;94946.53;;;21.74;66.70
41234;BME280;26968;42.686;23.352;2022-08-25T07:11:34;95013.41;;;22.12;66.58
41234;BME280;26968;42.686;23.352;2022-08-25T07:14:01;94982.06;;;22.07;66.76
41234;BME280;26968;42.686;23.352;2022-08-25T07:16:27;95039.13;;;22.56;65.89
41234;BME280;26968;42.686;23.352;2022-08-25T07:18:53;95042.69;;;22.76;65.42
41234;BME280;26968;42.686;23.352;2022-08-25T07:21:22;94975.75;;;22.35;65.23
41234;BME280;26968;42.686;23.352;2022-08-25T07:23:48;94976.94;;;22.37;64.26
41234;BME280;26968;42.686;23.352;2022-08-25T07:26:17;95059.38;;;23.17;63.87
41234;BME280;26968;42.686;23.352;2022-08-25T07:28:43;94875.16;;;22.06;64.15
41234;BME280;26968;42.686;23.352;2022-08-25T07:31:09;95064.50;;;23.41;64.06
41234;BME280;26968;42.686;23.352;2022-08-25T07:33:34;95027.13;;;23.08;64.30
41234;BME280;26968;42.686;23.352;2022-08-25T07:36:00;94777.72;;;21.41;64.18
41234;BME280;26968;42.686;23.352;2022-08-25T07:38:25;95051.09;;;23.29;63.92
41234;BME280;26968;42.686;23.352;2022-08-25T07:40:51;94926.09;;;22.23;64.03
41234;BME280;26968;42.686;23.352;2022-08-25T07:43:20;94863.38;;;22.14;63.64
41234;BME280;26968;42.686;23.352;2022-08-25T07:45:46;94992.75;;;23.08;62.99
41234;BME280;26968;42.686;23.352;2022-08-25T07:48:13;95044.09;;;23.47;62.43
41234;BME280;26968;42.686;23.352;2022-08-25T07:50:44;94795.97;;;21.83;62.37
41234;BME280;26968;42.686;23.352;2022-08-25T07:53:12;94898.09;;;22.70;61.71
41234;BME280;26968;42.686;23.352;2022-08-25T07:55:38;95018.66;;;23.48;61.67
41234;BME280;26968;42.686;23.352;2022-08-25T07:58:05;94921.31;;;23.13;61.20
41234;BME280;26968;42.686;23.352;2022-08-25T08:00:31;95052.78;;;24.21;60.85
41234;BME280;26968;42.686;23.352;2022-08-25T08:03:00;95047.66;;;24.39;60.57
41234;BME280;26968;42.686;23.352;2022-08-25T08:05:27;94974.53;;;23.93;59.97
41234;BME280;26968;42.686;23.352;2022-08-25T08:07:54;95046.31;;;24.52;59.60
41234;BME280;26968;42.686;23.352;2022-08-25T08:10:20;94886.47;;;23.76;59.51
41234;BME280;26968;42.686;23.352;2022-08-25T08:12:46;94760.28;;;22.93;59.04
41234;BME280;26968;42.686;23.352;2022-08-25T08:15:11;95021.22;;;24.58;57.52
41234;BME280;26968;42.686;23.352;2022-08-25T08:17:38;94971.41;;;24.40;57.39
41234;BME280;26968;42.686;23.352;2022-08-25T08:20:06;95036.19;;;25.02;56.68
41234;BME280;26968;42.686;23.352;2022-08-25T08:22:36;94892.06;;;23.87;57.70
41234;BME280;26968;42.686;23.352;2022-08-25T08:25:02;95034.88;;;24.66;58.05
41234;BME280;26968;42.686;23.352;2022-08-25T08:27:28;95027.41;;;24.85;57.00
41234;BME280;26968;42.686;23.352;2022-08-25T08:29:54;95026.94;;;24.80;57.34
41234;BME280;26968;42.686;23.352;2022-08-25T08:32:20;95034.53;;;24.97;57.24
41234;BME280;26968;42.686;23.352;2022-08-25T08:34:45;95003.47;;;24.91;56.90
41234;BME280;26968;42.686;23.352;2022-08-25T08:37:12;95033.28;;;25.17;55.95
41234;BME280;26968;42.686;23.352;2022-08-25T08:39:38;95003.38;;;25.14;55.93
41234;BME280;26968;42.686;23.352;2022-08-25T08:45:00;95026.72;;;25.22;54.16
41234;BME280;26968;42.686;23.352;2022-08-25T08:55:58;95030.81;;;25.42;54.00
41234;BME280;26968;42.686;23.352;2022-08-25T08:58:39;94993.88;;;25.34;52.87
41234;BME280;26968;42.686;23.352;2022-08-25T09:01:06;95020.88;;;25.57;52.51
41234;BME280;26968;42.686;23.352;2022-08-25T09:03:41;94975.09;;;25.15;50.51
41234;BME280;26968;42.686;23.352;2022-08-25T09:06:15;94987.13;;;25.17;50.85
41234;BME280;26968;42.686;23.352;2022-08-25T09:08:42;94941.31;;;25.09;51.06
41234;BME280;26968;42.686;23.352;2022-08-25T09:17:00;94948.59;;;25.05;50.21
41234;BME280;26968;42.686;23.352;2022-08-25T09:27:40;94767.75;;;24.42;48.96
41234;BME280;26968;42.686;23.352;2022-08-25T09:30:11;95009.44;;;26.18;49.14
41234;BME280;26968;42.686;23.352;2022-08-25T09:32:44;94939.75;;;25.92;48.53
41234;BME280;26968;42.686;23.352;2022-08-25T09:35:25;95014.50;;;26.20;47.42
41234;BME280;26968;42.686;23.352;2022-08-25T09:38:09;94971.66;;;26.02;47.15
41234;BME280;26968;42.686;23.352;2022-08-25T09:40:38;94950.31;;;26.04;48.78
41234;BME280;26968;42.686;23.352;2022-08-25T09:43:21;94907.50;;;25.87;45.80
41234;BME280;26968;42.686;23.352;2022-08-25T09:45:54;94999.63;;;26.54;46.46
41234;BME280;26968;42.686;23.352;2022-08-25T09:50:53;95006.09;;;27.01;44.79
41234;BME280;26968;42.686;23.352;2022-08-25T09:53:22;95004.91;;;26.95;43.79
41234;BME280;26968;42.686;23.352;2022-08-25T09:55:55;94866.91;;;26.08;45.24
41234;BME280;26968;42.686;23.352;2022-08-25T09:58:23;94930.69;;;26.98;43.13
41234;BME280;26968;42.686;23.352;2022-08-25T10:03:25;94985.91;;;27.09;44.30
41234;BME280;26968;42.686;23.352;2022-08-25T10:11:13;94975.06;;;27.19;45.27
41234;BME280;26968;42.686;23.352;2022-08-25T10:13:45;95000.16;;;27.96;43.49
41234;BME280;26968;42.686;23.352;2022-08-25T10:16:21;94911.75;;;28.11;41.31
41234;BME280;26968;42.686;23.352;2022-08-25T10:19:15;94938.78;;;29.07;39.17
41234;BME280;26968;42.686;23.352;2022-08-25T10:22:08;94941.38;;;29.98;39.98
41234;BME280;26968;42.686;23.352;2022-08-25T10:24:35;94994.50;;;30.82;37.78
41234;BME280;26968;42.686;23.352;2022-08-25T10:27:08;95000.13;;;31.39;37.35
41234;BME280;26968;42.686;23.352;2022-08-25T10:30:00;94996.69;;;31.93;36.71
41234;BME280;26968;42.686;23.352;2022-08-25T10:34:58;94985.53;;;32.30;34.02
41234;BME280;26968;42.686;23.352;2022-08-25T10:43:00;94978.25;;;33.46;31.71
41234;BME280;26968;42.686;23.352;2022-08-25T10:45:36;94945.69;;;33.44;30.56
41234;BME280;26968;42.686;23.352;2022-08-25T10:48:22;94970.53;;;33.57;30.47
41234;BME280;26968;42.686;23.352;2022-08-25T10:56:33;94937.81;;;32.24;33.67
41234;BME280;26968;42.686;23.352;2022-08-25T11:04:37;94961.06;;;32.39;32.03
41234;BME280;26968;42.686;23.352;2022-08-25T11:07:12;94935.03;;;32.71;31.98
41234;BME280;26968;42.686;23.352;2022-08-25T11:09:46;94939.56;;;32.57;34.20
41234;BME280;26968;42.686;23.352;2022-08-25T11:14:54;94938.47;;;33.14;31.79
41234;BME280;26968;42.686;23.352;2022-08-25T11:17:25;94875.72;;;32.73;32.00
41234;BME280;26968;42.686;23.352;2022-08-25T11:19:58;94885.72;;;33.03;31.21
41234;BME280;26968;42.686;23.352;2022-08-25T11:22:33;94890.88;;;33.37;31.57
41234;BME280;26968;42.686;23.352;2022-08-25T11:30:26;94869.31;;;33.36;31.17
41234;BME280;26968;42.686;23.352;2022-08-25T11:32:54;94927.19;;;34.13;29.61
41234;BME280;26968;42.686;23.352;2022-08-25T11:35:42;94925.56;;;34.48;29.61
41234;BME280;26968;42.686;23.352;2022-08-25T11:51:51;94846.28;;;34.56;29.52
41234;BME280;26968;42.686;23.352;2022-08-25T12:00:00;94911.53;;;34.42;28.27
41234;BME280;26968;42.686;23.352;2022-08-25T12:08:03;94906.31;;;33.99;29.26
41234;BME280;26968;42.686;23.352;2022-08-25T12:13:49;94868.66;;;34.13;30.30
41234;BME280;26968;42.686;23.352;2022-08-25T12:16:40;94893.84;;;34.27;30.26
41234;BME280;26968;42.686;23.352;2022-08-25T12:19:23;94904.94;;;34.69;29.38
41234;BME280;26968;42.686;23.352;2022-08-25T12:21:49;94898.72;;;34.36;29.18
41234;BME280;26968;42.686;23.352;2022-08-25T12:28:00;94867.16;;;34.40;28.90
41234;BME280;26968;42.686;23.352;2022-08-25T12:32:58;94912.28;;;34.88;27.85
41234;BME280;26968;42.686;23.352;2022-08-25T12:35:32;94907.88;;;34.62;29.34
41234;BME280;26968;42.686;23.352;2022-08-25T12:38:03;94908.94;;;34.80;28.45
41234;BME280;26968;42.686;23.352;2022-08-25T12:43:30;94886.88;;;34.39;29.29
41234;BME280;26968;42.686;23.352;2022-08-25T12:56:59;94806.28;;;33.28;28.68
41234;BME280;26968;42.686;23.352;2022-08-25T12:59:31;94900.06;;;33.99;28.79
41234;BME280;26968;42.686;23.352;2022-08-25T13:05:04;94901.50;;;33.71;29.88
41234;BME280;26968;42.686;23.352;2022-08-25T13:07:57;94912.66;;;34.13;28.50
41234;BME280;26968;42.686;23.352;2022-08-25T13:10:47;94769.56;;;33.03;28.32
41234;BME280;26968;42.686;23.352;2022-08-25T13:16:22;94912.06;;;32.18;30.65
41234;BME280;26968;42.686;23.352;2022-08-25T13:18:47;94882.75;;;31.88;31.36
41234;BME280;26968;42.686;23.352;2022-08-25T13:21:36;94882.44;;;32.06;31.27
41234;BME280;26968;42.686;23.352;2022-08-25T13:24:06;94817.94;;;31.74;31.90
41234;BME280;26968;42.686;23.352;2022-08-25T13:26:38;94901.50;;;31.90;31.52
41234;BME280;26968;42.686;23.352;2022-08-25T13:31:34;94896.16;;;31.82;32.57
41234;BME280;26968;42.686;23.352;2022-08-25T13:34:14;94803.38;;;31.54;32.08
41234;BME280;26968;42.686;23.352;2022-08-25T13:36:44;94906.13;;;32.19;30.81
41234;BME280;26968;42.686;23.352;2022-08-25T13:39:29;94870.47;;;31.46;31.39
41234;BME280;26968;42.686;23.352;2022-08-25T13:41:58;94785.84;;;30.98;31.28
41234;BME280;26968;42.686;23.352;2022-08-25T13:44:26;94900.31;;;31.67;31.77
41234;BME280;26968;42.686;23.352;2022-08-25T13:47:10;94876.28;;;31.98;31.20
41234;BME280;26968;42.686;23.352;2022-08-25T13:49:37;94901.50;;;32.36;30.76
41234;BME280;26968;42.686;23.352;2022-08-25T13:52:04;94907.19;;;32.49;30.12
41234;BME280;26968;42.686;23.352;2022-08-25T13:54:40;94787.56;;;32.08;29.53
41234;BME280;26968;42.686;23.352;2022-08-25T13:57:21;94849.66;;;32.81;28.86
41234;BME280;26968;42.686;23.352;2022-08-25T13:59:55;94910.78;;;33.25;29.50
41234;BME280;26968;42.686;23.352;2022-08-25T14:02:46;94875.63;;;33.16;28.23
41234;BME280;26968;42.686;23.352;2022-08-25T14:05:15;94876.88;;;33.12;28.83
41234;BME280;26968;42.686;23.352;2022-08-25T14:07:52;94903.81;;;32.81;29.15
41234;BME280;26968;42.686;23.352;2022-08-25T14:11:00;94901.59;;;33.12;29.24
41234;BME280;26968;42.686;23.352;2022-08-25T14:15:52;94869.25;;;32.83;29.92
41234;BME280;26968;42.686;23.352;2022-08-25T14:18:21;94846.09;;;32.65;30.28
41234;BME280;26968;42.686;23.352;2022-08-25T14:20:50;94878.47;;;32.73;30.28
41234;BME280;26968;42.686;23.352;2022-08-25T14:23:20;94875.22;;;32.39;30.99
41234;BME280;26968;42.686;23.352;2022-08-25T14:25:48;94906.72;;;32.74;29.99
41234;BME280;26968;42.686;23.352;2022-08-25T14:28:18;94869.50;;;32.30;29.13
41234;BME280;26968;42.686;23.352;2022-08-25T14:30:50;94907.22;;;32.69;29.73
41234;BME280;26968;42.686;23.352;2022-08-25T14:33:18;94891.41;;;32.53;29.50
41234;BME280;26968;42.686;23.352;2022-08-25T14:35:48;94901.13;;;32.97;28.75
41234;BME280;26968;42.686;23.352;2022-08-25T14:38:14;94850.66;;;32.91;28.90
41234;BME280;26968;42.686;23.352;2022-08-25T14:40:42;94872.94;;;33.32;28.64
41234;BME280;26968;42.686;23.352;2022-08-25T14:43:07;94871.06;;;33.62;28.28
41234;BME280;26968;42.686;23.352;2022-08-25T14:45:35;94815.94;;;33.17;29.51
41234;BME280;26968;42.686;23.352;2022-08-25T14:48:05;94828.41;;;33.21;28.14
41234;BME280;26968;42.686;23.352;2022-08-25T14:50:32;94828.53;;;32.58;29.12
41234;BME280;26968;42.686;23.352;2022-08-25T14:52:59;94826.94;;;32.81;28.63
41234;BME280;26968;42.686;23.352;2022-08-25T14:55:24;94864.59;;;33.36;29.15
41234;BME280;26968;42.686;23.352;2022-08-25T14:57:50;94813.56;;;32.83;28.91
41234;BME280;26968;42.686;23.352;2022-08-25T15:00:15;94894.91;;;32.34;30.78
41234;BME280;26968;42.686;23.352;2022-08-25T15:02:42;94848.81;;;32.25;30.32
41234;BME280;26968;42.686;23.352;2022-08-25T15:05:09;94861.53;;;32.15;30.71